createdAt,value
2018-05-08T10:15:05.271Z,2.90
2018-05-08T10:17:31.638Z,2.67
2018-05-08T10:19:58.043Z,2.50
2018-05-08T10:22:24.516Z,3.00
2018-05-08T10:24:50.937Z,2.20
2018-05-08T10:27:17.385Z,2.43
2018-05-08T10:29:43.795Z,2.40
2018-05-08T10:32:10.184Z,2.50
2018-05-08T10:34:37.317Z,2.13
2018-05-08T10:37:04.431Z,2.10
2018-05-08T10:39:30.820Z,2.47
2018-05-08T10:41:57.944Z,2.40
2018-05-08T10:44:24.309Z,3.07
2018-05-08T10:46:51.435Z,2.30
2018-05-08T10:49:18.552Z,2.13
2018-05-08T10:51:44.945Z,2.80
2018-05-08T10:54:12.055Z,2.70
2018-05-08T10:56:38.445Z,2.37
2018-05-08T10:59:04.855Z,2.63
2018-05-08T11:01:31.977Z,2.57
2018-05-08T11:03:58.367Z,3.33
2018-05-08T11:06:24.729Z,2.50
2018-05-08T11:08:51.132Z,3.00
2018-05-08T11:11:17.531Z,2.90
2018-05-08T11:13:43.892Z,2.60
2018-05-08T11:16:10.288Z,2.37
2018-05-08T11:18:37.400Z,1.90
2018-05-08T11:21:03.821Z,2.00
2018-05-08T11:23:30.191Z,1.83
2018-05-08T11:25:56.600Z,2.10
2018-05-08T11:28:23.018Z,2.23
2018-05-08T11:30:49.417Z,2.50
2018-05-08T11:33:15.795Z,2.43
2018-05-08T11:35:42.168Z,1.90
2018-05-08T11:38:08.555Z,2.40
2018-05-08T11:40:34.983Z,2.03
2018-05-08T11:43:01.368Z,2.70
2018-05-08T11:45:27.764Z,2.27
2018-05-08T11:47:54.144Z,2.10
2018-05-08T11:50:20.530Z,2.60
2018-05-08T11:52:46.989Z,2.27
2018-05-08T11:55:13.428Z,2.60
2018-05-08T11:57:39.820Z,2.30
2018-05-08T12:00:06.248Z,2.50
2018-05-08T12:02:33.399Z,1.80
2018-05-08T12:05:00.587Z,2.47
2018-05-08T12:07:26.999Z,2.00
2018-05-08T12:09:53.397Z,2.13
2018-05-08T12:12:19.797Z,2.47
2018-05-08T12:14:46.276Z,2.27
2018-05-08T12:17:13.335Z,2.13
2018-05-08T12:19:40.439Z,1.77
2018-05-08T12:22:06.836Z,2.10
2018-05-08T12:24:33.220Z,2.17
2018-05-08T12:26:59.639Z,1.93
2018-05-08T12:29:26.081Z,1.70
2018-05-08T12:31:52.505Z,2.43
2018-05-08T12:34:18.909Z,1.83
2018-05-08T12:36:45.297Z,2.53
2018-05-08T12:39:11.716Z,1.50
2018-05-08T12:41:38.120Z,1.90
2018-05-08T12:44:04.525Z,2.10
2018-05-08T12:46:31.682Z,1.80
2018-05-08T12:48:58.815Z,2.13
2018-05-08T12:51:25.220Z,2.20
2018-05-08T12:53:51.669Z,2.13
2018-05-08T12:56:18.052Z,2.13
2018-05-08T12:58:44.468Z,2.13
2018-05-08T13:01:11.588Z,2.60
2018-05-08T13:03:37.996Z,1.87
2018-05-08T13:06:04.404Z,1.80
2018-05-08T13:08:30.826Z,1.90
2018-05-08T13:10:57.286Z,2.53
2018-05-08T13:13:23.737Z,2.07
2018-05-08T13:15:50.160Z,2.00
2018-05-08T13:18:16.693Z,2.00
2018-05-08T13:20:43.039Z,1.90
2018-05-08T13:23:09.449Z,2.70
2018-05-08T13:25:35.825Z,2.30
2018-05-08T13:28:02.274Z,2.20
2018-05-08T13:30:28.747Z,2.10
2018-05-08T13:32:55.164Z,2.30
2018-05-08T13:35:22.334Z,2.37
2018-05-08T13:37:48.752Z,2.30
2018-05-08T13:40:15.861Z,2.27
2018-05-08T13:42:42.283Z,2.20
2018-05-08T13:45:08.783Z,2.33
2018-05-08T13:47:35.085Z,2.30
2018-05-08T13:50:01.531Z,2.30
2018-05-08T13:52:27.950Z,2.13
2018-05-08T13:54:54.342Z,2.10
2018-05-08T13:57:20.891Z,2.37
2018-05-08T13:59:47.341Z,2.03
2018-05-08T14:02:13.727Z,2.40
2018-05-08T14:04:40.156Z,2.30
2018-05-08T14:07:06.615Z,2.30
2018-05-08T14:09:33.033Z,1.70
2018-05-08T14:11:59.414Z,2.20
2018-05-08T14:14:25.812Z,2.27
2018-05-08T14:16:52.208Z,2.17
2018-05-08T14:19:18.590Z,2.07
2018-05-08T14:21:45.016Z,1.53
2018-05-08T14:24:11.424Z,2.00
2018-05-08T14:26:38.561Z,2.40
2018-05-08T14:29:04.956Z,2.23
2018-05-08T14:31:31.491Z,2.07
2018-05-08T14:33:58.552Z,2.43
2018-05-08T14:36:24.943Z,2.20
2018-05-08T14:38:51.341Z,2.10
2018-05-08T14:41:17.751Z,2.43
2018-05-08T14:43:44.177Z,2.30
2018-05-08T14:46:10.569Z,2.80
2018-05-08T14:48:37.705Z,2.53
2018-05-08T14:51:04.097Z,2.77
2018-05-08T14:53:30.500Z,2.37
2018-05-08T14:55:56.904Z,2.40
2018-05-08T14:58:24.031Z,2.73
2018-05-08T15:00:50.429Z,3.10
2018-05-08T15:03:16.824Z,1.93
2018-05-08T15:05:43.188Z,2.63
2018-05-08T15:08:09.576Z,2.73
2018-05-08T15:10:35.951Z,3.03
2018-05-08T15:13:02.419Z,3.50
2018-05-08T15:15:28.811Z,2.87
2018-05-08T15:17:55.918Z,2.97
2018-05-08T15:20:22.304Z,2.70
2018-05-08T15:22:49.427Z,3.00
2018-05-08T15:25:15.799Z,2.83
2018-05-08T15:27:42.200Z,2.63
2018-05-08T15:30:09.360Z,3.13
2018-05-08T15:32:36.470Z,2.90
2018-05-08T15:35:02.893Z,3.20
2018-05-08T15:37:29.288Z,2.57
2018-05-08T15:39:56.430Z,2.93
2018-05-08T15:42:23.573Z,2.87
2018-05-08T15:44:49.938Z,2.97
2018-05-08T15:47:16.438Z,2.97
2018-05-08T15:49:42.776Z,2.80
2018-05-08T15:52:09.921Z,3.33
2018-05-08T15:54:36.321Z,2.80
2018-05-08T15:57:02.712Z,3.70
2018-05-08T15:59:29.818Z,3.33
2018-05-08T16:01:56.205Z,2.93
2018-05-08T16:04:22.575Z,3.10
2018-05-08T16:06:49.028Z,3.57
2018-05-08T16:09:15.431Z,2.70
2018-05-08T16:11:41.826Z,3.50
2018-05-08T16:14:08.964Z,3.30
2018-05-08T16:16:35.335Z,3.47
2018-05-08T16:19:01.738Z,3.77
2018-05-08T16:21:28.876Z,3.10
2018-05-08T16:23:55.260Z,3.13
2018-05-08T16:26:21.708Z,2.90
2018-05-08T16:28:48.117Z,2.87
2018-05-08T16:31:14.552Z,4.00
2018-05-08T16:33:40.926Z,3.60
2018-05-08T16:36:07.343Z,3.07
2018-05-08T16:38:33.707Z,3.50
2018-05-08T16:41:00.108Z,3.40
2018-05-08T16:43:26.473Z,3.77
2018-05-08T16:45:53.617Z,3.83
2018-05-08T16:48:20.019Z,3.23
2018-05-08T16:50:46.388Z,3.50
2018-05-08T16:53:12.776Z,3.87
2018-05-08T16:55:39.147Z,3.63
2018-05-08T16:58:05.533Z,3.50
2018-05-08T17:00:32.645Z,3.73
2018-05-08T17:02:59.037Z,3.67
2018-05-08T17:05:25.451Z,4.20
2018-05-08T17:07:51.827Z,4.90
2018-05-08T17:10:18.397Z,5.53
2018-05-08T17:12:44.764Z,6.00
2018-05-08T17:15:11.142Z,3.67
2018-05-08T17:17:37.535Z,3.83
2018-05-08T17:20:04.888Z,3.80
2018-05-08T17:22:31.272Z,3.73
2018-05-08T17:24:57.664Z,3.87
2018-05-08T17:27:24.035Z,4.30
2018-05-08T17:29:50.478Z,4.90
2018-05-08T17:32:16.892Z,4.00
2018-05-08T17:34:43.351Z,4.07
2018-05-08T17:37:09.766Z,4.57
2018-05-08T17:39:36.162Z,5.07
2018-05-08T17:42:02.564Z,4.50
2018-05-08T17:44:29.692Z,3.90
2018-05-08T17:46:56.090Z,3.90
2018-05-08T17:49:22.524Z,4.20
2018-05-08T17:51:48.896Z,4.50
2018-05-08T17:54:15.363Z,4.63
2018-05-08T17:56:42.519Z,4.60
2018-05-08T17:59:09.696Z,5.13
2018-05-08T18:01:36.158Z,5.17
2018-05-08T18:04:02.581Z,4.70
2018-05-08T18:06:29.034Z,5.10
2018-05-08T18:08:55.460Z,4.80
2018-05-08T18:11:21.896Z,5.00
2018-05-08T18:13:48.319Z,5.33
2018-05-08T18:16:14.717Z,5.20
2018-05-08T18:18:41.873Z,5.50
2018-05-08T18:21:09.024Z,4.23
2018-05-08T18:23:35.425Z,4.73
2018-05-08T18:26:01.851Z,4.97
2018-05-08T18:28:28.294Z,5.87
2018-05-08T18:30:54.735Z,5.80
2018-05-08T18:33:21.169Z,5.50
2018-05-08T18:35:48.405Z,5.60
